sensor_id;sensor_type;location;lat;lon;timestamp;pressure;altitude;pressure_sealevel;temperature;humidity
76124;BME280;65173;48.066;20.976;2023-03-02T00:02:08;101105.53;;;0.92;53.84
76124;BME280;65173;48.066;20.976;2023-03-02T00:05:12;101107.03;;;0.88;54.15
76124;BME280;65173;48.066;20.976;2023-03-02T00:08:17;101104.19;;;0.78;54.40
76124;BME280;65173;48.066;20.976;2023-03-02T00:11:20;101106.44;;;0.62;54.84
76124;BME280;65173;48.066;20.976;2023-03-02T00:14:23;101100.97;;;0.52;55.66
76124;BME280;65173;48.066;20.976;2023-03-02T00:17:26;101104.50;;;0.58;55.50
76124;BME280;65173;48.066;20.976;2023-03-02T00:20:32;101107.25;;;0.51;56.70
76124;BME280;65173;48.066;20.976;2023-03-02T00:23:37;101102.66;;;0.47;56.42
76124;BME280;65173;48.066;20.976;2023-03-02T00:26:41;101107.31;;;0.33;57.16
76124;BME280;65173;48.066;20.976;2023-03-02T00:29:43;101106.03;;;0.24;57.31
76124;BME280;65173;48.066;20.976;2023-03-02T00:32:46;101102.38;;;0.13;57.33
76124;BME280;65173;48.066;20.976;2023-03-02T00:35:49;101100.38;;;-0.03;58.46
76124;BME280;65173;48.066;20.976;2023-03-02T00:38:52;101100.59;;;-0.05;58.16
76124;BME280;65173;48.066;20.976;2023-03-02T00:41:55;101097.78;;;0.09;57.74
76124;BME280;65173;48.066;20.976;2023-03-02T00:44:58;101089.34;;;0.18;57.16
76124;BME280;65173;48.066;20.976;2023-03-02T00:48:03;101085.63;;;0.26;57.00
76124;BME280;65173;48.066;20.976;2023-03-02T00:51:06;101078.00;;;0.36;56.42
76124;BME280;65173;48.066;20.976;2023-03-02T00:54:09;101059.56;;;0.43;56.05
76124;BME280;65173;48.066;20.976;2023-03-02T00:57:12;101059.91;;;0.46;56.33
76124;BME280;65173;48.066;20.976;2023-03-02T01:00:16;101058.09;;;0.47;55.97
76124;BME280;65173;48.066;20.976;2023-03-02T01:03:22;101064.34;;;0.46;56.04
76124;BME280;65173;48.066;20.976;2023-03-02T01:06:25;101058.09;;;0.47;55.98
76124;BME280;65173;48.066;20.976;2023-03-02T01:09:28;101053.41;;;0.49;55.81
76124;BME280;65173;48.066;20.976;2023-03-02T01:12:31;101044.63;;;0.43;55.62
76124;BME280;65173;48.066;20.976;2023-03-02T01:15:34;101044.97;;;0.47;55.87
76124;BME280;65173;48.066;20.976;2023-03-02T01:18:37;101043.16;;;0.47;55.76
76124;BME280;65173;48.066;20.976;2023-03-02T01:21:40;101044.84;;;0.42;56.21
76124;BME280;65173;48.066;20.976;2023-03-02T01:24:43;101041.66;;;0.40;56.43
76124;BME280;65173;48.066;20.976;2023-03-02T01:27:46;101039.47;;;0.37;56.30
76124;BME280;65173;48.066;20.976;2023-03-02T01:30:52;101039.47;;;0.25;56.82
76124;BME280;65173;48.066;20.976;2023-03-02T01:33:55;101031.00;;;0.11;57.34
76124;BME280;65173;48.066;20.976;2023-03-02T01:36:58;101041.16;;;0.08;57.63
76124;BME280;65173;48.066;20.976;2023-03-02T01:40:01;101042.31;;;0.12;57.42
76124;BME280;65173;48.066;20.976;2023-03-02T01:43:12;101034.75;;;0.04;57.32
76124;BME280;65173;48.066;20.976;2023-03-02T01:46:26;101037.47;;;-0.03;57.89
76124;BME280;65173;48.066;20.976;2023-03-02T01:49:36;101033.94;;;-0.09;57.86
76124;BME280;65173;48.066;20.976;2023-03-02T01:52:41;101037.31;;;-0.20;58.31
76124;BME280;65173;48.066;20.976;2023-03-02T01:55:44;101025.97;;;-0.32;58.77
76124;BME280;65173;48.066;20.976;2023-03-02T01:58:52;101034.19;;;-0.28;58.82
76124;BME280;65173;48.066;20.976;2023-03-02T02:01:57;101034.78;;;-0.26;58.69
76124;BME280;65173;48.066;20.976;2023-03-02T02:05:03;101035.59;;;-0.26;59.02
76124;BME280;65173;48.066;20.976;2023-03-02T02:08:07;101033.09;;;-0.21;58.94
76124;BME280;65173;48.066;20.976;2023-03-02T02:11:11;101037.41;;;-0.26;58.94
76124;BME280;65173;48.066;20.976;2023-03-02T02:14:14;101036.31;;;-0.19;58.70
76124;BME280;65173;48.066;20.976;2023-03-02T02:17:18;101037.44;;;-0.15;58.66
76124;BME280;65173;48.066;20.976;2023-03-02T02:26:47;101031.94;;;-0.25;58.40
76124;BME280;65173;48.066;20.976;2023-03-02T02:29:51;101037.19;;;-0.25;58.41
76124;BME280;65173;48.066;20.976;2023-03-02T02:32:57;101032.88;;;-0.19;58.34
76124;BME280;65173;48.066;20.976;2023-03-02T02:36:05;101032.47;;;-0.05;58.03
76124;BME280;65173;48.066;20.976;2023-03-02T02:39:24;101031.00;;;0.11;57.09
76124;BME280;65173;48.066;20.976;2023-03-02T02:42:33;101025.78;;;0.11;57.27
76124;BME280;65173;48.066;20.976;2023-03-02T02:45:37;101030.00;;;0.12;57.15
76124;BME280;65173;48.066;20.976;2023-03-02T02:48:41;101020.41;;;0.06;57.36
76124;BME280;65173;48.066;20.976;2023-03-02T02:51:44;101015.50;;;0.10;57.21
76124;BME280;65173;48.066;20.976;2023-03-02T02:54:49;101013.78;;;0.04;57.35
76124;BME280;65173;48.066;20.976;2023-03-02T02:57:55;101016.09;;;0.12;56.95
76124;BME280;65173;48.066;20.976;2023-03-02T03:01:00;101017.69;;;0.13;57.39
76124;BME280;65173;48.066;20.976;2023-03-02T03:04:05;101017.69;;;0.13;57.11
76124;BME280;65173;48.066;20.976;2023-03-02T03:07:15;101019.97;;;0.09;57.41
76124;BME280;65173;48.066;20.976;2023-03-02T03:10:32;101015.38;;;0.05;57.38
76124;BME280;65173;48.066;20.976;2023-03-02T03:13:42;101014.69;;;-0.03;57.65
76124;BME280;65173;48.066;20.976;2023-03-02T03:16:48;101006.94;;;0.03;57.69
76124;BME280;65173;48.066;20.976;2023-03-02T03:19:51;101014.59;;;0.04;57.55
76124;BME280;65173;48.066;20.976;2023-03-02T03:22:55;101008.75;;;0.02;57.29
76124;BME280;65173;48.066;20.976;2023-03-02T03:26:02;101012.38;;;-0.11;58.04
76124;BME280;65173;48.066;20.976;2023-03-02T03:29:05;101014.22;;;-0.11;57.89
76124;BME280;65173;48.066;20.976;2023-03-02T03:32:09;101013.41;;;-0.12;58.06
76124;BME280;65173;48.066;20.976;2023-03-02T03:35:12;101013.91;;;-0.03;57.64
76124;BME280;65173;48.066;20.976;2023-03-02T03:38:15;101015.16;;;-0.06;57.95
76124;BME280;65173;48.066;20.976;2023-03-02T03:41:21;101016.53;;;-0.03;57.65
76124;BME280;65173;48.066;20.976;2023-03-02T03:44:24;101015.38;;;-0.07;57.93
76124;BME280;65173;48.066;20.976;2023-03-02T03:47:28;101016.38;;;-0.08;58.07
76124;BME280;65173;48.066;20.976;2023-03-02T03:50:32;101012.75;;;-0.07;57.92
76124;BME280;65173;48.066;20.976;2023-03-02T03:53:35;101011.59;;;-0.11;58.31
76124;BME280;65173;48.066;20.976;2023-03-02T03:56:44;101011.22;;;-0.15;58.43
76124;BME280;65173;48.066;20.976;2023-03-02T03:59:48;101012.72;;;-0.19;58.23
76124;BME280;65173;48.066;20.976;2023-03-02T04:02:52;101017.72;;;-0.17;58.33
76124;BME280;65173;48.066;20.976;2023-03-02T04:05:55;101016.00;;;-0.23;58.56
76124;BME280;65173;48.066;20.976;2023-03-02T04:08:58;101011.00;;;-0.25;58.79
76124;BME280;65173;48.066;20.976;2023-03-02T04:12:08;101017.78;;;-0.36;59.72
76124;BME280;65173;48.066;20.976;2023-03-02T04:15:15;101014.63;;;-0.56;59.49
76124;BME280;65173;48.066;20.976;2023-03-02T04:18:19;101010.41;;;-0.57;59.91
76124;BME280;65173;48.066;20.976;2023-03-02T04:21:23;101015.50;;;-0.62;60.23
76124;BME280;65173;48.066;20.976;2023-03-02T04:24:26;101009.47;;;-0.62;60.14
76124;BME280;65173;48.066;20.976;2023-03-02T04:27:31;101012.31;;;-0.64;60.30
76124;BME280;65173;48.066;20.976;2023-03-02T04:30:34;101003.84;;;-0.78;60.77
76124;BME280;65173;48.066;20.976;2023-03-02T04:33:37;101005.94;;;-0.86;61.24
76124;BME280;65173;48.066;20.976;2023-03-02T04:36:41;101001.59;;;-0.92;61.49
76124;BME280;65173;48.066;20.976;2023-03-02T04:39:46;101003.78;;;-1.08;62.18
76124;BME280;65173;48.066;20.976;2023-03-02T04:42:52;100993.88;;;-1.06;62.14
76124;BME280;65173;48.066;20.976;2023-03-02T04:45:55;100987.13;;;-1.13;62.26
76124;BME280;65173;48.066;20.976;2023-03-02T04:48:58;100978.13;;;-1.17;62.79
76124;BME280;65173;48.066;20.976;2023-03-02T04:52:02;100986.69;;;-1.10;62.49
76124;BME280;65173;48.066;20.976;2023-03-02T04:55:06;100997.59;;;-1.31;62.95
76124;BME280;65173;48.066;20.976;2023-03-02T04:58:09;100989.91;;;-1.26;62.90
76124;BME280;65173;48.066;20.976;2023-03-02T05:01:13;100994.59;;;-1.35;63.32
76124;BME280;65173;48.066;20.976;2023-03-02T05:04:16;100996.34;;;-1.29;63.34
76124;BME280;65173;48.066;20.976;2023-03-02T05:07:19;101006.44;;;-1.32;63.24
76124;BME280;65173;48.066;20.976;2023-03-02T05:10:23;101001.38;;;-1.27;63.13
76124;BME280;65173;48.066;20.976;2023-03-02T05:13:26;101000.63;;;-1.34;63.12
76124;BME280;65173;48.066;20.976;2023-03-02T05:16:31;100998.88;;;-1.41;63.75
76124;BME280;65173;48.066;20.976;2023-03-02T05:19:35;100995.56;;;-1.29;63.75
76124;BME280;65173;48.066;20.976;2023-03-02T05:22:38;101001.69;;;-1.42;64.24
76124;BME280;65173;48.066;20.976;2023-03-02T05:25:41;100997.47;;;-1.43;63.68
76124;BME280;65173;48.066;20.976;2023-03-02T05:28:44;101000.63;;;-1.34;63.43
76124;BME280;65173;48.066;20.976;2023-03-02T05:31:47;100994.22;;;-1.38;63.87
76124;BME280;65173;48.066;20.976;2023-03-02T05:34:50;101004.63;;;-1.32;63.55
76124;BME280;65173;48.066;20.976;2023-03-02T05:37:53;101000.72;;;-1.05;62.84
76124;BME280;65173;48.066;20.976;2023-03-02T05:40:56;101006.88;;;-0.99;62.27
76124;BME280;65173;48.066;20.976;2023-03-02T05:43:59;101008.13;;;-1.01;62.50
76124;BME280;65173;48.066;20.976;2023-03-02T05:47:02;101001.16;;;-1.08;62.69
76124;BME280;65173;48.066;20.976;2023-03-02T05:50:05;101005.44;;;-1.13;63.21
76124;BME280;65173;48.066;20.976;2023-03-02T05:53:09;101013.28;;;-0.95;63.07
76124;BME280;65173;48.066;20.976;2023-03-02T05:56:11;101012.81;;;-0.55;61.66
76124;BME280;65173;48.066;20.976;2023-03-02T05:59:15;101021.03;;;-0.22;61.09
76124;BME280;65173;48.066;20.976;2023-03-02T06:02:17;101023.19;;;0.46;59.08
76124;BME280;65173;48.066;20.976;2023-03-02T06:05:21;101019.88;;;1.37;56.27
76124;BME280;65173;48.066;20.976;2023-03-02T06:08:24;101023.06;;;1.96;54.03
76124;BME280;65173;48.066;20.976;2023-03-02T06:11:27;101015.63;;;2.60;51.79
76124;BME280;65173;48.066;20.976;2023-03-02T06:14:31;101020.75;;;3.32;50.58
76124;BME280;65173;48.066;20.976;2023-03-02T06:17:34;101018.31;;;3.74;49.01
76124;BME280;65173;48.066;20.976;2023-03-02T06:20:37;101024.28;;;3.92;48.61
76124;BME280;65173;48.066;20.976;2023-03-02T06:23:41;101023.97;;;4.20;48.10
76124;BME280;65173;48.066;20.976;2023-03-02T06:26:43;101018.94;;;4.18;47.15
76124;BME280;65173;48.066;20.976;2023-03-02T06:29:46;101013.88;;;4.44;46.77
76124;BME280;65173;48.066;20.976;2023-03-02T06:32:49;101019.88;;;4.76;46.09
76124;BME280;65173;48.066;20.976;2023-03-02T06:35:52;101016.38;;;5.18;45.56
76124;BME280;65173;48.066;20.976;2023-03-02T06:38:55;101010.44;;;5.78;44.54
76124;BME280;65173;48.066;20.976;2023-03-02T06:41:58;101012.59;;;5.86;44.25
76124;BME280;65173;48.066;20.976;2023-03-02T06:45:01;101020.22;;;6.64;42.89
76124;BME280;65173;48.066;20.976;2023-03-02T06:48:05;101026.75;;;7.12;42.24
76124;BME280;65173;48.066;20.976;2023-03-02T06:51:08;101019.94;;;7.50;41.53
76124;BME280;65173;48.066;20.976;2023-03-02T06:54:12;101018.63;;;7.48;42.25
76124;BME280;65173;48.066;20.976;2023-03-02T06:57:14;101018.47;;;7.24;41.13
76124;BME280;65173;48.066;20.976;2023-03-02T07:00:18;101026.13;;;7.80;41.08
76124;BME280;65173;48.066;20.976;2023-03-02T07:03:29;101030.41;;;8.10;40.74
76124;BME280;65173;48.066;20.976;2023-03-02T07:06:31;101025.56;;;8.51;39.86
76124;BME280;65173;48.066;20.976;2023-03-02T07:09:34;101021.00;;;8.56;38.95
76124;BME280;65173;48.066;20.976;2023-03-02T07:12:37;101031.22;;;8.73;39.17
76124;BME280;65173;48.066;20.976;2023-03-02T07:15:39;101035.66;;;9.01;39.53
76124;BME280;65173;48.066;20.976;2023-03-02T07:18:42;101032.34;;;9.33;38.02
76124;BME280;65173;48.066;20.976;2023-03-02T07:21:45;101024.75;;;9.83;38.30
76124;BME280;65173;48.066;20.976;2023-03-02T07:24:48;101028.31;;;10.30;37.87
76124;BME280;65173;48.066;20.976;2023-03-02T07:27:51;101036.88;;;10.73;36.07
76124;BME280;65173;48.066;20.976;2023-03-02T07:30:54;101025.31;;;10.77;35.04
76124;BME280;65173;48.066;20.976;2023-03-02T07:33:57;101028.38;;;11.26;35.48
76124;BME280;65173;48.066;20.976;2023-03-02T07:37:00;101024.81;;;11.80;33.57
76124;BME280;65173;48.066;20.976;2023-03-02T07:40:03;101016.63;;;11.99;35.48
76124;BME280;65173;48.066;20.976;2023-03-02T07:43:07;101018.72;;;12.33;33.62
76124;BME280;65173;48.066;20.976;2023-03-02T07:46:10;101022.53;;;12.40;32.80
76124;BME280;65173;48.066;20.976;2023-03-02T07:49:13;101019.53;;;12.11;33.90
76124;BME280;65173;48.066;20.976;2023-03-02T07:52:16;101026.66;;;13.17;33.61
76124;BME280;65173;48.066;20.976;2023-03-02T07:55:19;101027.59;;;13.30;30.73
76124;BME280;65173;48.066;20.976;2023-03-02T07:58:22;101029.53;;;13.55;32.85
76124;BME280;65173;48.066;20.976;2023-03-02T08:01:25;101024.31;;;14.10;29.81
76124;BME280;65173;48.066;20.976;2023-03-02T08:04:28;101022.22;;;14.50;29.67
76124;BME280;65173;48.066;20.976;2023-03-02T08:07:31;101016.78;;;14.68;30.28
76124;BME280;65173;48.066;20.976;2023-03-02T08:10:35;101022.25;;;15.59;28.37
76124;BME280;65173;48.066;20.976;2023-03-02T08:13:38;101020.22;;;15.36;28.27
76124;BME280;65173;48.066;20.976;2023-03-02T08:16:41;101025.66;;;15.89;28.26
76124;BME280;65173;48.066;20.976;2023-03-02T08:19:44;101026.59;;;16.51;27.68
76124;BME280;65173;48.066;20.976;2023-03-02T08:22:47;101022.59;;;16.57;27.80
76124;BME280;65173;48.066;20.976;2023-03-02T08:25:51;101012.53;;;17.02;26.92
76124;BME280;65173;48.066;20.976;2023-03-02T08:28:54;101016.91;;;17.19;26.93
76124;BME280;65173;48.066;20.976;2023-03-02T08:32:01;101013.31;;;17.15;27.25
76124;BME280;65173;48.066;20.976;2023-03-02T08:35:04;101006.13;;;16.71;26.00
76124;BME280;65173;48.066;20.976;2023-03-02T08:38:07;101003.34;;;16.79;27.11
76124;BME280;65173;48.066;20.976;2023-03-02T08:41:22;101001.84;;;17.58;25.47
76124;BME280;65173;48.066;20.976;2023-03-02T08:44:25;101002.88;;;16.89;26.42
76124;BME280;65173;48.066;20.976;2023-03-02T08:47:27;101014.41;;;18.07;25.34
76124;BME280;65173;48.066;20.976;2023-03-02T08:50:31;101007.84;;;19.18;23.99
76124;BME280;65173;48.066;20.976;2023-03-02T08:53:38;101002.72;;;18.62;23.93
76124;BME280;65173;48.066;20.976;2023-03-02T08:56:42;100998.00;;;19.25;23.71
76124;BME280;65173;48.066;20.976;2023-03-02T08:59:45;101001.34;;;19.38;23.85
76124;BME280;65173;48.066;20.976;2023-03-02T09:02:48;100995.63;;;19.24;23.92
76124;BME280;65173;48.066;20.976;2023-03-02T09:05:51;101003.22;;;19.34;23.25
76124;BME280;65173;48.066;20.976;2023-03-02T09:08:54;101002.56;;;19.98;23.85
76124;BME280;65173;48.066;20.976;2023-03-02T09:11:57;101010.56;;;19.18;24.25
76124;BME280;65173;48.066;20.976;2023-03-02T09:15:01;100999.09;;;19.79;23.58
76124;BME280;65173;48.066;20.976;2023-03-02T09:18:04;100990.06;;;18.97;23.53
76124;BME280;65173;48.066;20.976;2023-03-02T09:21:08;100991.47;;;18.76;25.69
76124;BME280;65173;48.066;20.976;2023-03-02T09:24:11;100992.19;;;19.81;25.31
76124;BME280;65173;48.066;20.976;2023-03-02T09:27:13;100988.34;;;20.24;24.16
76124;BME280;65173;48.066;20.976;2023-03-02T09:30:18;100984.06;;;20.69;23.18
76124;BME280;65173;48.066;20.976;2023-03-02T09:33:22;100977.72;;;20.84;23.23
76124;BME280;65173;48.066;20.976;2023-03-02T09:36:26;100979.91;;;21.01;22.86
76124;BME280;65173;48.066;20.976;2023-03-02T09:39:29;100975.97;;;19.81;24.45
76124;BME280;65173;48.066;20.976;2023-03-02T09:42:47;100970.22;;;20.28;24.41
76124;BME280;65173;48.066;20.976;2023-03-02T09:46:19;100970.97;;;20.48;23.83
76124;BME280;65173;48.066;20.976;2023-03-02T09:52:49;100965.84;;;20.92;24.58
76124;BME280;65173;48.066;20.976;2023-03-02T09:55:57;100965.69;;;20.55;24.74
76124;BME280;65173;48.066;20.976;2023-03-02T09:59:12;100967.53;;;21.30;24.17
76124;BME280;65173;48.066;20.976;2023-03-02T10:02:22;100968.53;;;21.48;24.13
76124;BME280;65173;48.066;20.976;2023-03-02T10:05:38;100965.84;;;21.52;24.62
76124;BME280;65173;48.066;20.976;2023-03-02T10:08:41;100958.53;;;21.56;24.40
76124;BME280;65173;48.066;20.976;2023-03-02T10:12:07;100956.38;;;21.09;24.52
76124;BME280;65173;48.066;20.976;2023-03-02T10:15:35;100946.84;;;21.48;26.08
76124;BME280;65173;48.066;20.976;2023-03-02T10:18:50;100945.25;;;20.88;24.87
76124;BME280;65173;48.066;20.976;2023-03-02T10:22:19;100945.72;;;20.93;25.15
76124;BME280;65173;48.066;20.976;2023-03-02T10:28:57;100941.38;;;19.71;26.64
76124;BME280;65173;48.066;20.976;2023-03-02T10:35:24;100932.19;;;21.23;25.54
76124;BME280;65173;48.066;20.976;2023-03-02T10:38:27;100926.63;;;21.42;25.30
76124;BME280;65173;48.066;20.976;2023-03-02T10:41:33;100920.50;;;21.49;24.73
76124;BME280;65173;48.066;20.976;2023-03-02T10:44:52;100928.19;;;21.43;25.76
76124;BME280;65173;48.066;20.976;2023-03-02T10:48:09;100915.25;;;20.24;27.27
76124;BME280;65173;48.066;20.976;2023-03-02T10:51:21;100913.03;;;20.83;26.27
76124;BME280;65173;48.066;20.976;2023-03-02T10:54:24;100910.94;;;19.55;29.45
76124;BME280;65173;48.066;20.976;2023-03-02T11:00:34;100907.56;;;19.81;29.76
76124;BME280;65173;48.066;20.976;2023-03-02T11:03:38;100888.31;;;19.63;28.39
76124;BME280;65173;48.066;20.976;2023-03-02T11:06:41;100892.56;;;18.87;29.51
76124;BME280;65173;48.066;20.976;2023-03-02T11:10:02;100892.63;;;17.49;31.35
76124;BME280;65173;48.066;20.976;2023-03-02T11:13:27;100883.44;;;18.25;30.63
76124;BME280;65173;48.066;20.976;2023-03-02T11:16:31;100881.16;;;18.11;30.83
76124;BME280;65173;48.066;20.976;2023-03-02T11:19:36;100877.84;;;18.02;30.64
76124;BME280;65173;48.066;20.976;2023-03-02T11:22:48;100875.06;;;18.14;30.84
76124;BME280;65173;48.066;20.976;2023-03-02T11:25:57;100871.22;;;17.40;32.35
76124;BME280;65173;48.066;20.976;2023-03-02T11:33:24;100865.75;;;17.37;32.61
76124;BME280;65173;48.066;20.976;2023-03-02T11:36:53;100861.31;;;17.88;31.29
76124;BME280;65173;48.066;20.976;2023-03-02T11:43:21;100853.31;;;17.48;32.37
76124;BME280;65173;48.066;20.976;2023-03-02T11:46:27;100847.19;;;17.63;32.31
76124;BME280;65173;48.066;20.976;2023-03-02T11:49:41;100851.63;;;17.27;32.47
76124;BME280;65173;48.066;20.976;2023-03-02T11:52:51;100846.69;;;16.25;34.02
76124;BME280;65173;48.066;20.976;2023-03-02T11:55:56;100848.94;;;17.27;33.60
76124;BME280;65173;48.066;20.976;2023-03-02T11:59:10;100834.25;;;18.16;32.50
76124;BME280;65173;48.066;20.976;2023-03-02T12:02:18;100826.31;;;18.58;30.94
76124;BME280;65173;48.066;20.976;2023-03-02T12:05:27;100826.84;;;17.97;31.88
76124;BME280;65173;48.066;20.976;2023-03-02T12:11:39;100816.63;;;17.71;31.55
76124;BME280;65173;48.066;20.976;2023-03-02T12:14:42;100817.16;;;18.78;30.10
76124;BME280;65173;48.066;20.976;2023-03-02T12:17:45;100810.88;;;17.45;32.06
76124;BME280;65173;48.066;20.976;2023-03-02T12:21:06;100818.16;;;17.28;32.33
76124;BME280;65173;48.066;20.976;2023-03-02T12:24:24;100807.72;;;17.86;32.46
76124;BME280;65173;48.066;20.976;2023-03-02T12:27:34;100807.28;;;18.00;31.76
76124;BME280;65173;48.066;20.976;2023-03-02T12:30:38;100818.47;;;16.83;33.45
76124;BME280;65173;48.066;20.976;2023-03-02T12:33:47;100802.59;;;17.81;31.92
76124;BME280;65173;48.066;20.976;2023-03-02T12:36:58;100804.34;;;17.89;31.73
76124;BME280;65173;48.066;20.976;2023-03-02T12:43:31;100797.78;;;19.15;30.39
76124;BME280;65173;48.066;20.976;2023-03-02T12:46:35;100791.81;;;18.67;30.03
76124;BME280;65173;48.066;20.976;2023-03-02T12:49:55;100795.47;;;18.39;30.60
76124;BME280;65173;48.066;20.976;2023-03-02T12:53:03;100787.63;;;17.99;31.46
76124;BME280;65173;48.066;20.976;2023-03-02T12:56:08;100784.69;;;17.89;31.35
76124;BME280;65173;48.066;20.976;2023-03-02T12:59:37;100781.56;;;18.57;31.55
76124;BME280;65173;48.066;20.976;2023-03-02T13:02:44;100778.41;;;18.00;31.22
76124;BME280;65173;48.066;20.976;2023-03-02T13:05:47;100782.56;;;17.98;32.80
76124;BME280;65173;48.066;20.976;2023-03-02T13:08:53;100774.28;;;17.44;32.14
76124;BME280;65173;48.066;20.976;2023-03-02T13:11:58;100773.22;;;18.11;31.25
76124;BME280;65173;48.066;20.976;2023-03-02T13:15:01;100775.75;;;17.25;32.85
76124;BME280;65173;48.066;20.976;2023-03-02T13:18:04;100775.53;;;16.10;34.80
76124;BME280;65173;48.066;20.976;2023-03-02T13:21:10;100774.69;;;16.46;33.98
76124;BME280;65173;48.066;20.976;2023-03-02T13:25:28;100773.59;;;16.23;34.38
76124;BME280;65173;48.066;20.976;2023-03-02T13:28:00;100773.13;;;16.33;34.12
76124;BME280;65173;48.066;20.976;2023-03-02T13:31:23;100764.22;;;16.97;33.82
76124;BME280;65173;48.066;20.976;2023-03-02T13:34:28;100753.19;;;17.77;32.36
76124;BME280;65173;48.066;20.976;2023-03-02T13:37:36;100750.00;;;17.12;32.56
76124;BME280;65173;48.066;20.976;2023-03-02T13:40:50;100756.94;;;17.73;31.79
76124;BME280;65173;48.066;20.976;2023-03-02T13:43:54;100750.34;;;17.70;32.28
76124;BME280;65173;48.066;20.976;2023-03-02T13:46:57;100748.13;;;17.28;32.89
76124;BME280;65173;48.066;20.976;2023-03-02T13:50:16;100739.06;;;17.99;32.42
76124;BME280;65173;48.066;20.976;2023-03-02T13:53:24;100738.06;;;18.23;31.73
76124;BME280;65173;48.066;20.976;2023-03-02T13:56:35;100739.78;;;17.49;32.77
76124;BME280;65173;48.066;20.976;2023-03-02T13:59:40;100726.13;;;17.74;31.78
76124;BME280;65173;48.066;20.976;2023-03-02T14:02:44;100722.69;;;17.73;32.61
76124;BME280;65173;48.066;20.976;2023-03-02T14:05:47;100724.25;;;16.43;33.67
76124;BME280;65173;48.066;20.976;2023-03-02T14:08:50;100716.44;;;16.26;34.74
76124;BME280;65173;48.066;20.976;2023-03-02T14:11:54;100724.16;;;15.30;35.93
76124;BME280;65173;48.066;20.976;2023-03-02T14:14:59;100728.72;;;15.17;36.02
76124;BME280;65173;48.066;20.976;2023-03-02T14:18:36;100719.03;;;15.37;36.99
76124;BME280;65173;48.066;20.976;2023-03-02T14:21:41;100719.38;;;15.36;35.62
76124;BME280;65173;48.066;20.976;2023-03-02T14:24:45;100708.56;;;14.66;36.93
76124;BME280;65173;48.066;20.976;2023-03-02T14:27:50;100706.53;;;15.08;35.88
76124;BME280;65173;48.066;20.976;2023-03-02T14:30:55;100707.06;;;15.47;35.70
76124;BME280;65173;48.066;20.976;2023-03-02T14:33:58;100702.16;;;15.85;34.89
76124;BME280;65173;48.066;20.976;2023-03-02T14:37:03;100709.00;;;15.71;35.04
76124;BME280;65173;48.066;20.976;2023-03-02T14:40:20;100701.69;;;15.22;35.74
76124;BME280;65173;48.066;20.976;2023-03-02T14:43:24;100704.69;;;15.21;35.63
76124;BME280;65173;48.066;20.976;2023-03-02T14:46:27;100695.38;;;14.73;36.56
76124;BME280;65173;48.066;20.976;2023-03-02T14:49:30;100694.69;;;14.97;35.89
76124;BME280;65173;48.066;20.976;2023-03-02T14:52:42;100698.75;;;15.15;35.26
76124;BME280;65173;48.066;20.976;2023-03-02T14:55:45;100691.53;;;14.95;35.54
76124;BME280;65173;48.066;20.976;2023-03-02T14:58:50;100691.69;;;14.45;36.55
76124;BME280;65173;48.066;20.976;2023-03-02T15:01:53;100690.94;;;14.36;36.85
76124;BME280;65173;48.066;20.976;2023-03-02T15:04:59;100688.91;;;14.12;36.84
76124;BME280;65173;48.066;20.976;2023-03-02T15:08:02;100688.56;;;13.93;37.74
76124;BME280;65173;48.066;20.976;2023-03-02T15:11:07;100687.28;;;13.40;37.94
76124;BME280;65173;48.066;20.976;2023-03-02T15:14:10;100687.72;;;13.42;38.01
76124;BME280;65173;48.066;20.976;2023-03-02T15:17:13;100677.25;;;13.19;38.79
76124;BME280;65173;48.066;20.976;2023-03-02T15:20:17;100673.91;;;13.31;38.26
76124;BME280;65173;48.066;20.976;2023-03-02T15:23:22;100682.72;;;13.32;38.51
76124;BME280;65173;48.066;20.976;2023-03-02T15:26:24;100673.66;;;13.15;38.97
76124;BME280;65173;48.066;20.976;2023-03-02T15:29:27;100668.00;;;12.91;39.51
76124;BME280;65173;48.066;20.976;2023-03-02T15:32:30;100661.78;;;12.70;39.84
76124;BME280;65173;48.066;20.976;2023-03-02T15:35:37;100671.84;;;12.47;40.40
76124;BME280;65173;48.066;20.976;2023-03-02T15:38:40;100663.53;;;12.23;41.48
76124;BME280;65173;48.066;20.976;2023-03-02T15:41:43;100667.59;;;12.20;41.58
76124;BME280;65173;48.066;20.976;2023-03-02T15:44:46;100669.63;;;12.06;42.00
76124;BME280;65173;48.066;20.976;2023-03-02T15:47:49;100666.50;;;12.04;42.51
76124;BME280;65173;48.066;20.976;2023-03-02T15:50:59;100666.28;;;11.83;42.68
76124;BME280;65173;48.066;20.976;2023-03-02T15:54:03;100671.06;;;11.55;44.02
76124;BME280;65173;48.066;20.976;2023-03-02T15:57:07;100678.28;;;11.46;44.20
76124;BME280;65173;48.066;20.976;2023-03-02T16:00:14;100677.91;;;11.39;44.15
76124;BME280;65173;48.066;20.976;2023-03-02T16:03:17;100674.22;;;11.18;44.47
76124;BME280;65173;48.066;20.976;2023-03-02T16:06:21;100681.69;;;11.07;44.71
76124;BME280;65173;48.066;20.976;2023-03-02T16:09:26;100671.53;;;10.87;45.11
76124;BME280;65173;48.066;20.976;2023-03-02T16:12:30;100677.75;;;10.73;45.13
76124;BME280;65173;48.066;20.976;2023-03-02T16:15:40;100681.66;;;10.54;45.56
76124;BME280;65173;48.066;20.976;2023-03-02T16:18:48;100678.13;;;10.44;45.95
76124;BME280;65173;48.066;20.976;2023-03-02T16:21:51;100676.72;;;10.25;46.22
76124;BME280;65173;48.066;20.976;2023-03-02T16:24:54;100679.31;;;10.02;47.01
76124;BME280;65173;48.066;20.976;2023-03-02T16:27:57;100684.56;;;9.80;47.79
76124;BME280;65173;48.066;20.976;2023-03-02T16:31:06;100675.31;;;9.50;47.78
76124;BME280;65173;48.066;20.976;2023-03-02T16:34:09;100683.47;;;9.26;48.14
76124;BME280;65173;48.066;20.976;2023-03-02T16:37:13;100687.09;;;9.17;49.28